createdAt,value
2017-05-07T00:01:21.689Z,99.90
2017-05-07T00:03:49.386Z,99.90
2017-05-07T00:06:17.005Z,99.90
2017-05-07T00:08:44.616Z,99.90
2017-05-07T00:11:12.130Z,99.90
2017-05-07T00:13:40.046Z,99.90
2017-05-07T00:16:08.357Z,99.90
2017-05-07T00:18:36.214Z,99.90
2017-05-07T00:21:03.865Z,99.90
2017-05-07T00:23:31.510Z,99.90
2017-05-07T00:25:59.061Z,99.90
2017-05-07T00:28:27.338Z,99.90
2017-05-07T00:30:55.623Z,99.90
2017-05-07T00:33:23.883Z,99.90
2017-05-07T00:35:51.403Z,99.90
2017-05-07T00:38:19.121Z,99.90
2017-05-07T00:40:47.412Z,99.90
2017-05-07T00:43:14.951Z,99.90
2017-05-07T00:45:43.283Z,99.90
2017-05-07T00:48:10.775Z,99.90
2017-05-07T00:50:39.086Z,99.90
2017-05-07T00:53:06.860Z,99.90
2017-05-07T00:55:34.428Z,99.90
2017-05-07T00:58:03.047Z,99.90
2017-05-07T01:00:30.584Z,99.90
2017-05-07T01:02:58.085Z,99.90
2017-05-07T01:05:25.607Z,99.90
2017-05-07T01:07:53.151Z,99.90
2017-05-07T01:10:20.911Z,99.90
2017-05-07T01:12:48.463Z,99.90
2017-05-07T01:15:15.979Z,99.90
2017-05-07T01:17:43.721Z,99.90
2017-05-07T01:20:11.275Z,99.90
2017-05-07T01:22:39.591Z,99.90
2017-05-07T01:25:07.099Z,99.90
2017-05-07T01:27:35.409Z,99.90
2017-05-07T01:30:02.927Z,99.90
2017-05-07T01:32:30.445Z,99.90
2017-05-07T01:34:57.952Z,99.90
2017-05-07T01:37:26.261Z,99.90
2017-05-07T01:39:54.054Z,99.90
2017-05-07T01:42:21.581Z,99.90
2017-05-07T01:44:49.134Z,99.90
2017-05-07T01:47:16.905Z,99.90
2017-05-07T01:49:44.408Z,99.90
2017-05-07T01:52:12.007Z,99.90
2017-05-07T01:54:39.507Z,99.90
2017-05-07T01:57:07.068Z,99.90
2017-05-07T01:59:34.576Z,99.90
2017-05-07T02:02:02.149Z,99.90
2017-05-07T02:04:29.892Z,99.90
2017-05-07T02:06:57.412Z,99.90
2017-05-07T02:09:25.032Z,99.90
2017-05-07T02:11:52.559Z,99.90
2017-05-07T02:14:21.115Z,99.90
2017-05-07T02:16:48.677Z,99.90
2017-05-07T02:19:16.514Z,99.90
2017-05-07T02:21:44.077Z,99.90
2017-05-07T02:24:11.596Z,99.90
2017-05-07T02:26:39.160Z,99.90
2017-05-07T02:29:06.747Z,99.90
2017-05-07T02:31:34.255Z,99.90
2017-05-07T02:34:02.003Z,99.90
2017-05-07T02:36:30.271Z,99.90
2017-05-07T02:38:58.757Z,99.90
2017-05-07T02:41:26.540Z,99.90
2017-05-07T02:43:54.327Z,99.90
2017-05-07T02:46:22.059Z,99.90
2017-05-07T02:48:49.580Z,99.90
2017-05-07T02:51:17.331Z,99.90
2017-05-07T02:53:44.865Z,99.90
2017-05-07T02:56:12.613Z,99.90
2017-05-07T02:58:40.141Z,99.90
2017-05-07T03:01:08.484Z,99.90
2017-05-07T03:03:36.089Z,99.90
2017-05-07T03:06:03.588Z,99.90
2017-05-07T03:08:31.113Z,99.90
2017-05-07T03:10:58.624Z,99.90
2017-05-07T03:13:26.230Z,99.90
2017-05-07T03:15:53.983Z,99.90
2017-05-07T03:18:21.554Z,99.90
2017-05-07T03:20:49.198Z,99.90
2017-05-07T03:23:16.741Z,99.90
2017-05-07T03:25:45.009Z,99.90
2017-05-07T03:28:13.505Z,99.90
2017-05-07T03:30:41.029Z,99.90
2017-05-07T03:33:08.564Z,99.90
2017-05-07T03:35:36.088Z,99.90
2017-05-07T03:38:03.826Z,99.90
2017-05-07T03:40:32.189Z,99.90
2017-05-07T03:42:59.731Z,99.90
2017-05-07T03:45:27.299Z,99.90
2017-05-07T03:47:54.792Z,99.90
2017-05-07T03:50:22.368Z,99.90
2017-05-07T03:52:49.876Z,99.90
2017-05-07T03:55:17.763Z,99.90
2017-05-07T03:57:45.306Z,99.90
2017-05-07T04:00:13.596Z,99.90
2017-05-07T04:02:41.089Z,99.90
2017-05-07T04:05:08.655Z,99.90
2017-05-07T04:07:36.216Z,99.90
2017-05-07T04:10:03.744Z,99.90
2017-05-07T04:12:31.247Z,99.90
2017-05-07T04:14:58.828Z,99.90
2017-05-07T04:17:27.214Z,99.90
2017-05-07T04:19:54.802Z,99.90
2017-05-07T04:22:22.356Z,99.90
2017-05-07T04:24:50.006Z,99.90
2017-05-07T04:27:17.539Z,99.90
2017-05-07T04:29:45.804Z,99.90
2017-05-07T04:32:14.093Z,99.90
2017-05-07T04:34:42.416Z,99.90
2017-05-07T04:37:09.999Z,99.90
2017-05-07T04:39:37.535Z,99.90
2017-05-07T04:42:05.096Z,99.90
2017-05-07T04:44:32.879Z,99.90
2017-05-07T04:47:00.459Z,99.90
2017-05-07T04:49:28.719Z,99.90
2017-05-07T04:51:56.243Z,99.90
2017-05-07T04:54:23.779Z,99.90
2017-05-07T04:56:51.363Z,99.90
2017-05-07T04:59:19.105Z,99.90
2017-05-07T05:01:46.644Z,99.90
2017-05-07T05:04:14.214Z,99.90
2017-05-07T05:06:41.792Z,99.90
2017-05-07T05:09:10.047Z,99.90
2017-05-07T05:11:37.814Z,99.90
2017-05-07T05:14:05.992Z,99.90
2017-05-07T05:16:33.567Z,99.90
2017-05-07T05:19:15.987Z,99.90
2017-05-07T05:25:05.242Z,99.90
2017-05-07T05:27:47.677Z,99.90
2017-05-07T05:30:30.193Z,99.90
2017-05-07T05:32:58.021Z,99.90
2017-05-07T05:35:26.640Z,99.90
2017-05-07T05:37:54.467Z,99.90
2017-05-07T05:40:22.922Z,99.90
2017-05-07T05:42:51.232Z,99.90
2017-05-07T05:45:19.511Z,99.90
2017-05-07T05:47:47.827Z,99.90
2017-05-07T05:50:16.124Z,99.90
2017-05-07T05:52:43.630Z,99.90
2017-05-07T05:55:11.159Z,99.90
2017-05-07T05:57:38.729Z,99.90
2017-05-07T06:00:06.274Z,99.90
2017-05-07T06:02:33.815Z,99.90
2017-05-07T06:05:01.373Z,99.90
2017-05-07T06:07:30.471Z,99.90
2017-05-07T06:09:58.091Z,99.90
2017-05-07T06:12:26.431Z,99.90
2017-05-07T06:14:54.004Z,99.90
2017-05-07T06:17:21.606Z,99.90
2017-05-07T06:19:49.402Z,99.90
2017-05-07T06:22:16.920Z,99.90
2017-05-07T06:24:44.432Z,99.90
2017-05-07T06:27:12.013Z,99.90
2017-05-07T06:29:39.836Z,99.90
2017-05-07T06:32:07.375Z,99.90
2017-05-07T06:34:34.887Z,99.90
2017-05-07T06:37:02.466Z,99.90
2017-05-07T06:39:30.028Z,99.90
2017-05-07T06:41:58.369Z,99.90
2017-05-07T06:44:25.976Z,99.90
2017-05-07T06:46:53.743Z,99.90
2017-05-07T06:49:22.011Z,99.90
2017-05-07T06:51:49.544Z,99.90
2017-05-07T06:54:18.106Z,99.90
2017-05-07T06:56:45.696Z,99.90
2017-05-07T06:59:14.000Z,99.90
2017-05-07T07:01:41.552Z,99.90
2017-05-07T07:04:09.116Z,99.90
2017-05-07T07:06:36.984Z,99.90
2017-05-07T07:09:05.340Z,99.90
2017-05-07T07:11:32.884Z,99.90
2017-05-07T07:14:00.707Z,99.90
2017-05-07T07:16:28.319Z,99.90
2017-05-07T07:18:55.855Z,99.90
2017-05-07T07:21:24.155Z,99.90
2017-05-07T07:23:52.443Z,99.90
2017-05-07T07:26:20.036Z,99.90
2017-05-07T07:28:47.643Z,99.90
2017-05-07T07:31:15.913Z,99.90
2017-05-07T07:33:43.447Z,99.90
2017-05-07T07:36:12.106Z,99.90
2017-05-07T07:38:40.778Z,99.90
2017-05-07T07:41:09.347Z,94.80
2017-05-07T07:43:36.990Z,94.60
2017-05-07T07:46:04.496Z,94.20
2017-05-07T07:48:32.023Z,89.60
2017-05-07T07:51:00.607Z,87.30
2017-05-07T07:53:28.194Z,87.20
2017-05-07T07:55:56.508Z,99.90
2017-05-07T07:58:25.913Z,99.90
2017-05-07T08:00:53.440Z,99.90
2017-05-07T08:03:21.999Z,99.90
2017-05-07T08:05:50.299Z,82.30
2017-05-07T08:08:17.857Z,82.10
2017-05-07T08:10:47.119Z,84.80
2017-05-07T08:13:15.691Z,84.80
2017-05-07T08:15:44.024Z,93.00
2017-05-07T08:18:11.532Z,93.00
2017-05-07T08:20:40.096Z,99.90
2017-05-07T08:23:07.616Z,99.90
2017-05-07T08:25:36.283Z,99.90
2017-05-07T08:28:04.593Z,96.90
2017-05-07T08:30:32.128Z,96.90
2017-05-07T08:33:00.400Z,68.90
2017-05-07T08:35:28.927Z,77.20
2017-05-07T08:37:56.516Z,76.90
2017-05-07T08:40:25.527Z,69.30
2017-05-07T08:42:53.837Z,68.00
2017-05-07T08:45:22.180Z,69.90
2017-05-07T08:47:50.504Z,65.80
2017-05-07T08:50:18.001Z,65.80
2017-05-07T08:52:45.581Z,69.00
2017-05-07T08:55:14.124Z,78.30
2017-05-07T08:57:43.155Z,85.20
2017-05-07T09:00:10.687Z,85.20
2017-05-07T09:02:39.048Z,81.30
2017-05-07T09:05:06.583Z,81.20
2017-05-07T09:07:34.111Z,69.50
2017-05-07T09:10:01.621Z,77.50
2017-05-07T09:12:47.890Z,72.90
2017-05-07T09:15:45.148Z,73.00
2017-05-07T09:18:35.237Z,84.90
2017-05-07T09:21:03.543Z,90.10
2017-05-07T09:23:31.834Z,82.80
2017-05-07T09:25:59.440Z,82.90
2017-05-07T09:28:26.994Z,77.40
2017-05-07T09:30:55.303Z,83.30
2017-05-07T09:33:22.927Z,83.30
2017-05-07T09:35:50.483Z,86.80
2017-05-07T09:38:18.188Z,87.30
2017-05-07T09:40:46.526Z,92.00
2017-05-07T09:43:14.653Z,92.00
2017-05-07T09:45:43.084Z,92.00
2017-05-07T09:48:10.652Z,91.90
2017-05-07T09:50:38.229Z,97.50
2017-05-07T09:53:06.771Z,91.00
2017-05-07T09:55:35.072Z,90.70
2017-05-07T09:58:04.504Z,93.20
2017-05-07T10:00:34.052Z,93.20
2017-05-07T10:03:02.357Z,95.70
2017-05-07T10:05:32.212Z,94.00
2017-05-07T10:07:59.723Z,94.10
2017-05-07T10:10:27.271Z,98.90
2017-05-07T10:12:56.323Z,84.40
2017-05-07T10:15:24.309Z,84.40
2017-05-07T10:17:52.579Z,90.50
2017-05-07T10:20:20.144Z,90.60
2017-05-07T10:22:47.650Z,93.50
2017-05-07T10:25:17.113Z,93.40
2017-05-07T10:27:44.635Z,93.40
2017-05-07T10:30:13.295Z,86.40
2017-05-07T10:32:42.331Z,77.60
2017-05-07T10:35:09.855Z,77.50
2017-05-07T10:37:38.507Z,88.80
2017-05-07T10:40:06.048Z,89.00
2017-05-07T10:42:33.828Z,89.30
2017-05-07T10:45:02.114Z,89.70
2017-05-07T10:47:30.651Z,81.70
2017-05-07T10:49:58.167Z,81.60
2017-05-07T10:52:26.469Z,90.00
2017-05-07T10:54:53.972Z,90.00
2017-05-07T10:57:23.493Z,79.40
2017-05-07T10:59:52.207Z,79.30
2017-05-07T11:02:19.841Z,87.20
2017-05-07T11:04:47.344Z,90.60
2017-05-07T11:07:14.944Z,92.70
2017-05-07T11:09:42.622Z,92.60
2017-05-07T11:12:10.986Z,90.00
2017-05-07T11:14:39.275Z,88.40
2017-05-07T11:17:07.567Z,91.50
2017-05-07T11:19:35.115Z,91.40
2017-05-07T11:22:02.615Z,92.20
2017-05-07T11:24:30.284Z,91.00
2017-05-07T11:26:57.858Z,88.70
2017-05-07T11:29:27.329Z,90.50
2017-05-07T11:31:56.727Z,93.90
2017-05-07T11:34:24.259Z,93.40
2017-05-07T11:36:51.992Z,93.70
2017-05-07T11:39:20.623Z,94.50
2017-05-07T11:41:48.176Z,94.50
2017-05-07T11:44:15.691Z,95.60
2017-05-07T11:46:43.220Z,96.20
2017-05-07T11:49:10.741Z,96.40
2017-05-07T11:51:38.278Z,94.00
2017-05-07T11:54:05.848Z,94.00
2017-05-07T11:56:34.273Z,93.40
2017-05-07T11:59:02.448Z,93.40
2017-05-07T12:01:30.032Z,92.40
2017-05-07T12:03:58.356Z,90.70
2017-05-07T12:06:25.883Z,90.70
2017-05-07T12:08:53.556Z,91.10
2017-05-07T12:11:22.048Z,93.30
2017-05-07T12:13:50.327Z,93.40
2017-05-07T12:16:17.887Z,93.40
2017-05-07T12:18:45.415Z,95.20
2017-05-07T12:21:12.931Z,95.30
2017-05-07T12:23:40.484Z,95.60
2017-05-07T12:26:08.746Z,95.70
2017-05-07T12:28:37.803Z,98.30
2017-05-07T12:31:06.356Z,97.90
2017-05-07T12:33:34.680Z,96.30
2017-05-07T12:36:02.439Z,96.30
2017-05-07T12:38:29.999Z,97.00
2017-05-07T12:40:57.570Z,94.30
2017-05-07T12:43:26.603Z,95.70
2017-05-07T12:45:54.961Z,97.40
2017-05-07T12:48:22.493Z,97.30
2017-05-07T12:50:51.604Z,99.90
2017-05-07T12:53:20.678Z,99.90
2017-05-07T12:55:48.944Z,99.90
2017-05-07T12:58:17.252Z,99.90
2017-05-07T13:00:44.752Z,99.90
2017-05-07T13:03:13.352Z,99.90
2017-05-07T13:05:41.645Z,99.90
2017-05-07T13:08:10.689Z,99.90
2017-05-07T13:10:38.514Z,99.90
2017-05-07T13:13:07.567Z,99.90
2017-05-07T13:15:35.441Z,99.90
2017-05-07T13:18:03.715Z,99.90
2017-05-07T13:20:32.324Z,99.90
2017-05-07T13:23:00.587Z,99.90
2017-05-07T13:25:28.439Z,99.90
2017-05-07T13:27:56.760Z,99.90
2017-05-07T13:30:25.419Z,99.90
2017-05-07T13:32:52.917Z,99.90
2017-05-07T13:35:21.216Z,99.90
2017-05-07T13:37:49.832Z,99.90
2017-05-07T13:40:17.336Z,99.90
2017-05-07T13:42:45.636Z,99.50
2017-05-07T13:45:13.913Z,99.60
2017-05-07T13:47:41.431Z,99.40
2017-05-07T13:50:10.060Z,99.90
2017-05-07T13:52:37.609Z,99.90
2017-05-07T13:55:06.129Z,99.90
2017-05-07T13:57:34.417Z,98.60
2017-05-07T14:00:02.691Z,98.40
2017-05-07T14:02:31.025Z,96.00
2017-05-07T14:04:58.556Z,95.90
2017-05-07T14:07:26.846Z,97.50
2017-05-07T14:09:54.610Z,97.60
2017-05-07T14:12:22.903Z,94.30
2017-05-07T14:14:50.475Z,94.40
2017-05-07T14:17:19.507Z,92.60
2017-05-07T14:19:48.120Z,93.70
2017-05-07T14:22:15.635Z,93.80
2017-05-07T14:24:43.175Z,91.90
2017-05-07T14:27:11.667Z,95.00
2017-05-07T14:29:40.034Z,96.90
2017-05-07T14:32:08.311Z,95.90
2017-05-07T14:34:36.607Z,98.50
2017-05-07T14:37:05.223Z,97.70
2017-05-07T14:39:33.089Z,97.70
2017-05-07T14:42:00.596Z,96.00
2017-05-07T14:44:28.920Z,88.20
2017-05-07T14:46:56.423Z,88.20
2017-05-07T14:49:24.795Z,80.30
2017-05-07T14:51:53.093Z,84.60
2017-05-07T14:54:20.631Z,84.10
2017-05-07T14:56:48.896Z,82.60
2017-05-07T14:59:16.417Z,82.40
2017-05-07T15:01:44.733Z,77.90
2017-05-07T15:04:13.051Z,82.50
2017-05-07T15:06:41.509Z,90.80
2017-05-07T15:09:09.303Z,90.70
2017-05-07T15:11:37.892Z,91.20
2017-05-07T15:14:06.243Z,90.20
2017-05-07T15:16:33.900Z,90.20
2017-05-07T15:19:01.590Z,92.60
2017-05-07T15:21:29.107Z,89.30
2017-05-07T15:23:56.613Z,90.40
2017-05-07T15:26:24.487Z,91.00
2017-05-07T15:28:53.552Z,87.90
2017-05-07T15:31:21.079Z,87.90
2017-05-07T15:33:48.585Z,90.00
2017-05-07T15:36:16.460Z,90.20
2017-05-07T15:38:45.477Z,90.20
2017-05-07T15:41:14.004Z,91.70
2017-05-07T15:43:41.571Z,91.60
2017-05-07T15:46:09.890Z,95.40
2017-05-07T15:48:38.232Z,94.90
2017-05-07T15:51:05.946Z,94.90
2017-05-07T15:53:33.480Z,93.70
2017-05-07T15:56:01.777Z,95.20
2017-05-07T15:58:29.287Z,95.20
2017-05-07T16:00:58.355Z,93.60
2017-05-07T16:03:26.643Z,94.80
2017-05-07T16:05:54.192Z,94.80
2017-05-07T16:08:21.698Z,96.00
2017-05-07T16:10:49.987Z,97.70
2017-05-07T16:13:17.508Z,97.80
2017-05-07T16:15:45.024Z,96.70
2017-05-07T16:24:33.489Z,99.30
2017-05-07T16:27:07.904Z,99.60
2017-05-07T16:29:53.140Z,99.60
2017-05-07T16:32:20.697Z,99.50
2017-05-07T16:34:48.200Z,99.30
2017-05-07T16:37:16.514Z,96.00
2017-05-07T16:39:44.088Z,96.00
2017-05-07T16:42:28.011Z,96.00
2017-05-07T16:44:55.531Z,96.00
2017-05-07T16:47:23.030Z,96.30
2017-05-07T16:49:51.375Z,93.30
2017-05-07T16:52:19.968Z,95.20
2017-05-07T16:54:48.284Z,97.00
2017-05-07T16:57:16.617Z,98.60
2017-05-07T16:59:44.904Z,98.80
2017-05-07T17:02:12.447Z,98.80
2017-05-07T17:04:40.760Z,98.00
2017-05-07T17:07:15.403Z,99.50
2017-05-07T17:09:44.031Z,99.90
2017-05-07T17:12:12.308Z,99.90
2017-05-07T17:14:40.599Z,99.90
2017-05-07T17:17:08.183Z,99.90
2017-05-07T17:19:36.480Z,99.90
2017-05-07T17:22:04.339Z,99.90
2017-05-07T17:24:32.652Z,99.90
2017-05-07T17:27:00.232Z,99.90
2017-05-07T17:29:28.529Z,99.90
2017-05-07T17:31:56.059Z,99.90
2017-05-07T17:34:24.419Z,99.90
2017-05-07T17:36:53.009Z,99.90
2017-05-07T17:39:21.310Z,99.90
2017-05-07T17:41:48.850Z,99.90
2017-05-07T17:44:17.119Z,99.90
2017-05-07T17:46:45.643Z,99.90
2017-05-07T17:49:15.129Z,99.90
2017-05-07T17:51:43.451Z,99.90
2017-05-07T17:54:10.955Z,99.90
2017-05-07T17:56:40.222Z,99.90
2017-05-07T17:59:07.841Z,99.90
2017-05-07T18:01:37.464Z,99.90
2017-05-07T18:04:05.459Z,99.90
2017-05-07T18:06:33.760Z,99.90
2017-05-07T18:09:01.364Z,99.90
2017-05-07T18:11:28.879Z,99.90
2017-05-07T18:13:58.244Z,99.90
2017-05-07T18:16:25.787Z,99.90
2017-05-07T18:18:53.639Z,99.90
2017-05-07T18:21:21.487Z,99.90
2017-05-07T18:23:49.960Z,99.90
2017-05-07T18:26:18.260Z,99.90
2017-05-07T18:28:45.803Z,99.90
2017-05-07T18:31:13.303Z,99.90
2017-05-07T18:33:40.892Z,99.90
2017-05-07T18:36:08.644Z,99.90
2017-05-07T18:38:37.727Z,99.90
2017-05-07T18:41:05.283Z,99.90
2017-05-07T18:43:32.929Z,99.90
2017-05-07T18:46:00.802Z,99.90
2017-05-07T18:48:28.568Z,99.90
2017-05-07T18:50:56.184Z,99.90
2017-05-07T18:53:24.703Z,99.90
2017-05-07T18:55:52.343Z,99.90
2017-05-07T18:58:20.351Z,99.90
2017-05-07T19:00:47.920Z,99.90
2017-05-07T19:03:16.676Z,99.90
2017-05-07T19:05:44.217Z,99.90
2017-05-07T19:08:11.924Z,99.90
2017-05-07T19:10:40.249Z,99.90
2017-05-07T19:13:08.511Z,99.90
2017-05-07T19:15:36.047Z,99.90
2017-05-07T19:18:04.400Z,99.90
2017-05-07T19:20:33.595Z,99.90
2017-05-07T19:23:01.332Z,99.90
2017-05-07T19:25:29.036Z,99.90
2017-05-07T19:27:56.776Z,99.90
2017-05-07T19:30:24.305Z,99.90
2017-05-07T19:32:52.703Z,99.90
2017-05-07T19:35:21.389Z,99.90
2017-05-07T19:37:50.335Z,99.90
2017-05-07T19:40:18.015Z,99.90
2017-05-07T19:42:46.527Z,99.90
2017-05-07T19:45:14.062Z,99.90
2017-05-07T19:47:42.418Z,99.90
2017-05-07T19:50:10.433Z,99.90
2017-05-07T19:52:38.980Z,99.90
2017-05-07T19:55:07.496Z,99.90
2017-05-07T19:57:35.934Z,99.90
2017-05-07T20:00:04.412Z,99.90
2017-05-07T20:02:33.080Z,99.90
2017-05-07T20:05:01.631Z,99.90
2017-05-07T20:07:30.383Z,99.90
2017-05-07T20:10:00.180Z,99.90
2017-05-07T20:12:28.234Z,99.90
2017-05-07T20:14:55.861Z,99.90
2017-05-07T20:17:24.612Z,99.90
2017-05-07T20:19:53.057Z,99.90
2017-05-07T20:22:20.597Z,99.90
2017-05-07T20:24:48.700Z,99.90
2017-05-07T20:27:17.348Z,99.90
2017-05-07T20:29:44.876Z,99.90
2017-05-07T20:32:12.903Z,99.90
2017-05-07T20:34:41.883Z,99.90
2017-05-07T20:37:10.416Z,99.90
2017-05-07T20:39:38.241Z,99.90
2017-05-07T20:42:05.792Z,99.90
2017-05-07T20:44:34.071Z,99.90
2017-05-07T20:47:02.401Z,99.90
2017-05-07T20:49:30.969Z,99.90
2017-05-07T20:51:58.472Z,99.90
2017-05-07T20:54:26.828Z,99.90
2017-05-07T20:56:54.395Z,99.90
2017-05-07T20:59:22.744Z,99.90
2017-05-07T21:01:51.057Z,99.90
2017-05-07T21:04:18.568Z,99.90
2017-05-07T21:06:46.884Z,99.90
2017-05-07T21:09:14.420Z,99.90
2017-05-07T21:11:42.765Z,99.90
2017-05-07T21:14:12.087Z,99.90
2017-05-07T21:16:40.427Z,99.90
2017-05-07T21:19:07.960Z,99.90
2017-05-07T21:21:35.484Z,99.90
2017-05-07T21:24:03.784Z,99.90
2017-05-07T21:26:31.361Z,99.90
2017-05-07T21:28:59.672Z,99.90
2017-05-07T21:31:27.221Z,99.90
2017-05-07T21:33:54.789Z,99.90
2017-05-07T21:36:22.343Z,99.90
2017-05-07T21:38:49.960Z,99.90
2017-05-07T21:41:17.537Z,99.90
2017-05-07T21:43:45.051Z,99.90
2017-05-07T21:46:12.579Z,99.90
2017-05-07T21:48:40.095Z,99.90
2017-05-07T21:51:07.631Z,99.90
2017-05-07T21:53:35.977Z,99.90
2017-05-07T21:56:04.279Z,99.90
2017-05-07T21:58:31.804Z,99.90
2017-05-07T22:01:00.378Z,99.90
2017-05-07T22:03:29.479Z,99.90
2017-05-07T22:05:56.976Z,99.90
2017-05-07T22:08:24.546Z,99.90
2017-05-07T22:10:52.070Z,99.90
2017-05-07T22:13:19.572Z,99.90
2017-05-07T22:15:47.136Z,99.90
2017-05-07T22:18:14.640Z,99.90
2017-05-07T22:20:43.079Z,99.90
2017-05-07T22:23:12.100Z,99.90
2017-05-07T22:25:40.431Z,99.90
2017-05-07T22:28:08.283Z,99.90
2017-05-07T22:30:35.845Z,99.90
2017-05-07T22:33:03.374Z,99.90
2017-05-07T22:35:31.165Z,99.90
2017-05-07T22:37:58.728Z,99.90
2017-05-07T22:40:26.603Z,99.90
2017-05-07T22:42:54.101Z,99.90
2017-05-07T22:45:22.728Z,99.90
2017-05-07T22:47:50.248Z,99.90
2017-05-07T22:50:17.828Z,99.90
2017-05-07T22:52:45.605Z,99.90
2017-05-07T22:55:13.127Z,99.90
2017-05-07T22:57:40.628Z,99.90
2017-05-07T23:00:08.479Z,99.90
2017-05-07T23:02:36.347Z,99.90
2017-05-07T23:05:04.619Z,99.90
2017-05-07T23:07:32.931Z,99.90
2017-05-07T23:10:00.434Z,99.90
2017-05-07T23:12:28.072Z,99.90
2017-05-07T23:14:56.339Z,99.90
2017-05-07T23:17:24.663Z,99.90
2017-05-07T23:19:52.961Z,99.90
2017-05-07T23:22:22.232Z,99.90
2017-05-07T23:24:49.724Z,99.90
2017-05-07T23:27:18.749Z,99.90
2017-05-07T23:29:46.243Z,99.90
2017-05-07T23:32:14.576Z,99.90
2017-05-07T23:34:42.145Z,99.90
2017-05-07T23:37:09.934Z,99.90
2017-05-07T23:39:37.473Z,99.90
2017-05-07T23:42:05.003Z,99.90
2017-05-07T23:44:33.528Z,99.90
2017-05-07T23:47:01.832Z,99.90
2017-05-07T23:49:29.352Z,99.90
2017-05-07T23:51:56.843Z,99.90
2017-05-07T23:54:24.457Z,99.90
2017-05-07T23:56:52.738Z,99.90
2017-05-07T23:59:20.511Z,99.90
